sensor_id;sensor_type;location;lat;lon;timestamp;pressure;altitude;pressure_sealevel;temperature;humidity
67842;BME280;54642;59.126;37.876;2023-12-29T00:00:41;98941.94;;;-3.48;76.54
67842;BME280;54642;59.126;37.876;2023-12-29T00:03:07;98954.22;;;-3.34;76.75
67842;BME280;54642;59.126;37.876;2023-12-29T00:05:33;98958.66;;;-3.27;76.88
67842;BME280;54642;59.126;37.876;2023-12-29T00:07:58;98933.63;;;-3.43;76.64
67842;BME280;54642;59.126;37.876;2023-12-29T00:10:24;98944.63;;;-3.43;76.62
67842;BME280;54642;59.126;37.876;2023-12-29T00:12:50;98950.09;;;-3.31;76.83
67842;BME280;54642;59.126;37.876;2023-12-29T00:15:19;98954.25;;;-3.33;76.94
67842;BME280;54642;59.126;37.876;2023-12-29T00:17:45;98927.59;;;-3.47;76.75
67842;BME280;54642;59.126;37.876;2023-12-29T00:20:12;98924.16;;;-3.49;76.65
67842;BME280;54642;59.126;37.876;2023-12-29T00:22:38;98945.69;;;-3.36;76.72
67842;BME280;54642;59.126;37.876;2023-12-29T00:25:04;98943.88;;;-3.40;76.88
67842;BME280;54642;59.126;37.876;2023-12-29T00:27:31;98926.75;;;-3.48;76.71
67842;BME280;54642;59.126;37.876;2023-12-29T00:29:56;98906.91;;;-3.61;76.75
67842;BME280;54642;59.126;37.876;2023-12-29T00:32:22;98931.91;;;-3.45;76.90
67842;BME280;54642;59.126;37.876;2023-12-29T00:34:48;98931.69;;;-3.51;76.85
67842;BME280;54642;59.126;37.876;2023-12-29T00:37:14;98893.97;;;-3.69;76.90
67842;BME280;54642;59.126;37.876;2023-12-29T00:39:40;98892.22;;;-3.71;76.77
67842;BME280;54642;59.126;37.876;2023-12-29T00:42:06;98889.75;;;-3.70;76.91
67842;BME280;54642;59.126;37.876;2023-12-29T00:44:33;98905.28;;;-3.59;77.09
67842;BME280;54642;59.126;37.876;2023-12-29T00:46:59;98863.16;;;-3.83;77.02
67842;BME280;54642;59.126;37.876;2023-12-29T00:49:26;98907.22;;;-3.52;77.06
67842;BME280;54642;59.126;37.876;2023-12-29T00:51:53;98905.47;;;-3.53;76.94
67842;BME280;54642;59.126;37.876;2023-12-29T00:54:19;98908.06;;;-3.51;76.90
67842;BME280;54642;59.126;37.876;2023-12-29T00:56:51;98895.28;;;-3.54;76.93
67842;BME280;54642;59.126;37.876;2023-12-29T00:59:19;98899.50;;;-3.55;77.02
67842;BME280;54642;59.126;37.876;2023-12-29T01:01:45;98853.13;;;-3.79;76.84
67842;BME280;54642;59.126;37.876;2023-12-29T01:04:12;98885.03;;;-3.59;76.97
67842;BME280;54642;59.126;37.876;2023-12-29T01:06:37;98884.97;;;-3.60;77.08
67842;BME280;54642;59.126;37.876;2023-12-29T01:09:03;98870.56;;;-3.63;77.27
67842;BME280;54642;59.126;37.876;2023-12-29T01:11:29;98843.88;;;-3.79;76.76
67842;BME280;54642;59.126;37.876;2023-12-29T01:13:55;98874.19;;;-3.55;76.90
67842;BME280;54642;59.126;37.876;2023-12-29T01:16:21;98856.88;;;-3.68;77.05
67842;BME280;54642;59.126;37.876;2023-12-29T01:18:47;98875.03;;;-3.54;76.97
67842;BME280;54642;59.126;37.876;2023-12-29T01:21:13;98874.22;;;-3.53;76.74
67842;BME280;54642;59.126;37.876;2023-12-29T01:23:39;98850.25;;;-3.65;76.98
67842;BME280;54642;59.126;37.876;2023-12-29T01:26:05;98855.19;;;-3.68;77.00
67842;BME280;54642;59.126;37.876;2023-12-29T01:28:30;98866.41;;;-3.61;77.12
67842;BME280;54642;59.126;37.876;2023-12-29T01:30:57;98869.94;;;-3.56;77.07
67842;BME280;54642;59.126;37.876;2023-12-29T01:33:23;98880.19;;;-3.51;76.91
67842;BME280;54642;59.126;37.876;2023-12-29T01:35:49;98883.56;;;-3.52;77.13
67842;BME280;54642;59.126;37.876;2023-12-29T01:38:15;98876.81;;;-3.52;77.08
67842;BME280;54642;59.126;37.876;2023-12-29T01:40:45;98851.91;;;-3.65;77.03
67842;BME280;54642;59.126;37.876;2023-12-29T01:43:12;98882.00;;;-3.49;77.08
67842;BME280;54642;59.126;37.876;2023-12-29T01:45:38;98881.09;;;-3.49;77.10
67842;BME280;54642;59.126;37.876;2023-12-29T01:48:05;98866.78;;;-3.49;76.94
67842;BME280;54642;59.126;37.876;2023-12-29T01:50:31;98818.56;;;-3.79;76.77
67842;BME280;54642;59.126;37.876;2023-12-29T01:52:57;98868.44;;;-3.49;76.99
67842;BME280;54642;59.126;37.876;2023-12-29T01:55:24;98858.97;;;-3.55;76.92
67842;BME280;54642;59.126;37.876;2023-12-29T01:57:51;98858.88;;;-3.58;76.93
67842;BME280;54642;59.126;37.876;2023-12-29T02:00:17;98859.88;;;-3.53;76.96
67842;BME280;54642;59.126;37.876;2023-12-29T02:02:47;98822.97;;;-3.73;77.06
67842;BME280;54642;59.126;37.876;2023-12-29T02:05:14;98807.56;;;-3.79;76.98
67842;BME280;54642;59.126;37.876;2023-12-29T02:07:42;98834.44;;;-3.57;77.03
67842;BME280;54642;59.126;37.876;2023-12-29T02:10:09;98829.16;;;-3.64;77.19
67842;BME280;54642;59.126;37.876;2023-12-29T02:12:39;98831.84;;;-3.59;76.97
67842;BME280;54642;59.126;37.876;2023-12-29T02:15:05;98837.19;;;-3.50;77.08
67842;BME280;54642;59.126;37.876;2023-12-29T02:17:45;98830.41;;;-3.51;77.09
67842;BME280;54642;59.126;37.876;2023-12-29T02:20:12;98818.34;;;-3.58;77.14
67842;BME280;54642;59.126;37.876;2023-12-29T02:22:38;98851.81;;;-3.41;76.91
67842;BME280;54642;59.126;37.876;2023-12-29T02:25:05;98812.38;;;-3.60;77.11
67842;BME280;54642;59.126;37.876;2023-12-29T02:28:04;98845.94;;;-3.40;77.13
67842;BME280;54642;59.126;37.876;2023-12-29T02:30:38;98828.81;;;-3.47;77.09
67842;BME280;54642;59.126;37.876;2023-12-29T02:33:14;98836.53;;;-3.44;77.24
67842;BME280;54642;59.126;37.876;2023-12-29T02:35:43;98811.78;;;-3.53;76.96
67842;BME280;54642;59.126;37.876;2023-12-29T02:38:11;98829.09;;;-3.39;77.53
67842;BME280;54642;59.126;37.876;2023-12-29T02:40:38;98829.13;;;-3.38;77.14
67842;BME280;54642;59.126;37.876;2023-12-29T02:43:04;98817.41;;;-3.34;77.12
67842;BME280;54642;59.126;37.876;2023-12-29T02:45:29;98825.72;;;-3.38;77.25
67842;BME280;54642;59.126;37.876;2023-12-29T02:47:55;98812.25;;;-3.37;77.21
67842;BME280;54642;59.126;37.876;2023-12-29T02:50:21;98811.25;;;-3.42;77.17
67842;BME280;54642;59.126;37.876;2023-12-29T02:52:47;98776.03;;;-3.62;77.33
67842;BME280;54642;59.126;37.876;2023-12-29T02:55:13;98793.97;;;-3.56;77.32
67842;BME280;54642;59.126;37.876;2023-12-29T02:57:39;98805.19;;;-3.48;77.43
67842;BME280;54642;59.126;37.876;2023-12-29T03:00:05;98811.97;;;-3.47;77.38
67842;BME280;54642;59.126;37.876;2023-12-29T03:02:31;98764.00;;;-3.69;77.40
67842;BME280;54642;59.126;37.876;2023-12-29T03:04:58;98801.84;;;-3.47;77.40
67842;BME280;54642;59.126;37.876;2023-12-29T03:07:24;98803.66;;;-3.42;77.51
67842;BME280;54642;59.126;37.876;2023-12-29T03:09:50;98790.72;;;-3.52;77.45
67842;BME280;54642;59.126;37.876;2023-12-29T03:12:15;98795.94;;;-3.46;77.51
67842;BME280;54642;59.126;37.876;2023-12-29T03:14:41;98803.75;;;-3.39;77.62
67842;BME280;54642;59.126;37.876;2023-12-29T03:17:07;98788.28;;;-3.49;77.58
67842;BME280;54642;59.126;37.876;2023-12-29T03:19:33;98796.94;;;-3.40;77.57
67842;BME280;54642;59.126;37.876;2023-12-29T03:21:59;98773.03;;;-3.50;77.74
67842;BME280;54642;59.126;37.876;2023-12-29T03:24:25;98780.81;;;-3.44;77.65
67842;BME280;54642;59.126;37.876;2023-12-29T03:26:51;98787.94;;;-3.32;77.77
67842;BME280;54642;59.126;37.876;2023-12-29T03:29:17;98759.84;;;-3.38;77.83
67842;BME280;54642;59.126;37.876;2023-12-29T03:31:42;98767.41;;;-3.40;77.80
67842;BME280;54642;59.126;37.876;2023-12-29T03:34:08;98766.66;;;-3.37;77.68
67842;BME280;54642;59.126;37.876;2023-12-29T03:36:34;98777.84;;;-3.31;77.83
67842;BME280;54642;59.126;37.876;2023-12-29T03:39:00;98774.47;;;-3.30;77.64
67842;BME280;54642;59.126;37.876;2023-12-29T03:41:27;98772.78;;;-3.31;77.71
67842;BME280;54642;59.126;37.876;2023-12-29T03:43:53;98762.44;;;-3.37;77.76
67842;BME280;54642;59.126;37.876;2023-12-29T03:46:20;98762.41;;;-3.38;77.73
67842;BME280;54642;59.126;37.876;2023-12-29T03:48:48;98763.03;;;-3.46;78.30
67842;BME280;54642;59.126;37.876;2023-12-29T03:51:15;98739.84;;;-3.59;78.38
67842;BME280;54642;59.126;37.876;2023-12-29T03:53:41;98764.56;;;-3.51;78.39
67842;BME280;54642;59.126;37.876;2023-12-29T03:56:09;98763.72;;;-3.51;78.56
67842;BME280;54642;59.126;37.876;2023-12-29T03:58:35;98760.31;;;-3.52;78.53
67842;BME280;54642;59.126;37.876;2023-12-29T04:01:01;98754.56;;;-3.46;78.48
67842;BME280;54642;59.126;37.876;2023-12-29T04:03:27;98763.06;;;-3.44;78.52
67842;BME280;54642;59.126;37.876;2023-12-29T04:05:53;98758.00;;;-3.44;78.33
67842;BME280;54642;59.126;37.876;2023-12-29T04:08:19;98757.97;;;-3.46;78.18
67842;BME280;54642;59.126;37.876;2023-12-29T04:10:45;98722.34;;;-3.52;78.39
67842;BME280;54642;59.126;37.876;2023-12-29T04:13:11;98757.53;;;-3.32;78.18
67842;BME280;54642;59.126;37.876;2023-12-29T04:15:37;98749.94;;;-3.32;78.14
67842;BME280;54642;59.126;37.876;2023-12-29T04:18:03;98702.66;;;-3.60;78.16
67842;BME280;54642;59.126;37.876;2023-12-29T04:20:29;98749.72;;;-3.38;78.37
67842;BME280;54642;59.126;37.876;2023-12-29T04:22:55;98712.22;;;-3.52;78.28
67842;BME280;54642;59.126;37.876;2023-12-29T04:25:21;98733.72;;;-3.37;78.40
67842;BME280;54642;59.126;37.876;2023-12-29T04:27:47;98720.03;;;-3.44;78.35
67842;BME280;54642;59.126;37.876;2023-12-29T04:30:13;98706.25;;;-3.54;78.56
67842;BME280;54642;59.126;37.876;2023-12-29T04:32:38;98680.59;;;-3.65;78.41
67842;BME280;54642;59.126;37.876;2023-12-29T04:35:05;98700.41;;;-3.51;78.27
67842;BME280;54642;59.126;37.876;2023-12-29T04:37:31;98720.38;;;-3.32;78.16
67842;BME280;54642;59.126;37.876;2023-12-29T04:39:56;98717.84;;;-3.32;78.31
67842;BME280;54642;59.126;37.876;2023-12-29T04:42:22;98695.53;;;-3.45;78.23
67842;BME280;54642;59.126;37.876;2023-12-29T04:44:48;98714.38;;;-3.35;78.24
67842;BME280;54642;59.126;37.876;2023-12-29T04:47:14;98707.50;;;-3.39;78.36
67842;BME280;54642;59.126;37.876;2023-12-29T04:49:40;98692.94;;;-3.47;78.35
67842;BME280;54642;59.126;37.876;2023-12-29T04:52:06;98712.72;;;-3.33;78.45
67842;BME280;54642;59.126;37.876;2023-12-29T04:54:31;98704.28;;;-3.34;78.18
67842;BME280;54642;59.126;37.876;2023-12-29T04:56:57;98708.50;;;-3.33;78.48
67842;BME280;54642;59.126;37.876;2023-12-29T04:59:23;98699.13;;;-3.37;78.40
67842;BME280;54642;59.126;37.876;2023-12-29T05:01:49;98680.34;;;-3.43;78.61
67842;BME280;54642;59.126;37.876;2023-12-29T05:04:15;98696.63;;;-3.35;78.52
67842;BME280;54642;59.126;37.876;2023-12-29T05:06:42;98695.91;;;-3.31;78.57
67842;BME280;54642;59.126;37.876;2023-12-29T05:09:08;98688.25;;;-3.33;78.50
67842;BME280;54642;59.126;37.876;2023-12-29T05:11:34;98691.63;;;-3.34;78.40
67842;BME280;54642;59.126;37.876;2023-12-29T05:13:59;98698.56;;;-3.27;78.52
67842;BME280;54642;59.126;37.876;2023-12-29T05:16:25;98667.13;;;-3.33;78.52
67842;BME280;54642;59.126;37.876;2023-12-29T05:18:51;98651.84;;;-3.36;78.58
67842;BME280;54642;59.126;37.876;2023-12-29T05:21:18;98652.13;;;-3.27;78.21
67842;BME280;54642;59.126;37.876;2023-12-29T05:23:44;98680.34;;;-3.15;78.22
67842;BME280;54642;59.126;37.876;2023-12-29T05:26:11;98673.41;;;-3.20;78.47
67842;BME280;54642;59.126;37.876;2023-12-29T05:28:37;98674.44;;;-3.14;78.39
67842;BME280;54642;59.126;37.876;2023-12-29T05:31:03;98644.22;;;-3.38;78.19
67842;BME280;54642;59.126;37.876;2023-12-29T05:33:30;98669.31;;;-3.15;78.32
67842;BME280;54642;59.126;37.876;2023-12-29T05:35:56;98672.72;;;-3.15;78.20
67842;BME280;54642;59.126;37.876;2023-12-29T05:38:22;98665.00;;;-3.19;78.53
67842;BME280;54642;59.126;37.876;2023-12-29T05:40:48;98650.28;;;-3.31;78.56
67842;BME280;54642;59.126;37.876;2023-12-29T05:43:18;98658.78;;;-3.31;78.47
67842;BME280;54642;59.126;37.876;2023-12-29T05:45:44;98667.19;;;-3.32;78.51
67842;BME280;54642;59.126;37.876;2023-12-29T05:48:10;98644.13;;;-3.41;78.77
67842;BME280;54642;59.126;37.876;2023-12-29T05:50:36;98626.19;;;-3.49;78.71
67842;BME280;54642;59.126;37.876;2023-12-29T05:53:02;98639.16;;;-3.38;78.88
67842;BME280;54642;59.126;37.876;2023-12-29T05:55:28;98652.38;;;-3.18;78.38
67842;BME280;54642;59.126;37.876;2023-12-29T05:57:54;98664.06;;;-2.91;78.39
67842;BME280;54642;59.126;37.876;2023-12-29T06:00:20;98646.22;;;-2.94;78.00
67842;BME280;54642;59.126;37.876;2023-12-29T06:02:46;98663.72;;;-2.72;77.81
67842;BME280;54642;59.126;37.876;2023-12-29T06:05:12;98666.31;;;-2.69;77.50
67842;BME280;54642;59.126;37.876;2023-12-29T06:07:38;98662.88;;;-2.71;77.70
67842;BME280;54642;59.126;37.876;2023-12-29T06:10:05;98663.63;;;-2.75;77.42
67842;BME280;54642;59.126;37.876;2023-12-29T06:12:31;98661.63;;;-2.87;77.72
67842;BME280;54642;59.126;37.876;2023-12-29T06:14:57;98660.81;;;-2.85;77.88
67842;BME280;54642;59.126;37.876;2023-12-29T06:17:23;98652.94;;;-2.96;77.96
67842;BME280;54642;59.126;37.876;2023-12-29T06:19:49;98659.78;;;-2.92;77.86
67842;BME280;54642;59.126;37.876;2023-12-29T06:22:15;98661.59;;;-2.88;77.86
67842;BME280;54642;59.126;37.876;2023-12-29T06:24:41;98676.78;;;-2.88;77.96
67842;BME280;54642;59.126;37.876;2023-12-29T06:27:08;98664.72;;;-2.98;78.06
67842;BME280;54642;59.126;37.876;2023-12-29T06:29:35;98681.47;;;-3.03;78.24
67842;BME280;54642;59.126;37.876;2023-12-29T06:32:02;98655.66;;;-3.20;78.33
67842;BME280;54642;59.126;37.876;2023-12-29T06:34:28;98675.38;;;-3.10;78.50
67842;BME280;54642;59.126;37.876;2023-12-29T06:36:54;98674.63;;;-3.08;78.67
67842;BME280;54642;59.126;37.876;2023-12-29T06:39:20;98672.22;;;-3.01;78.43
67842;BME280;54642;59.126;37.876;2023-12-29T06:41:46;98678.44;;;-2.90;78.32
67842;BME280;54642;59.126;37.876;2023-12-29T06:44:12;98670.03;;;-2.89;78.08
67842;BME280;54642;59.126;37.876;2023-12-29T06:46:38;98650.16;;;-3.05;78.13
67842;BME280;54642;59.126;37.876;2023-12-29T06:49:04;98665.44;;;-3.02;78.21
67842;BME280;54642;59.126;37.876;2023-12-29T06:51:30;98669.56;;;-3.06;78.55
67842;BME280;54642;59.126;37.876;2023-12-29T06:53:56;98676.31;;;-3.07;78.62
67842;BME280;54642;59.126;37.876;2023-12-29T06:56:22;98683.16;;;-3.02;78.43
67842;BME280;54642;59.126;37.876;2023-12-29T06:58:48;98665.94;;;-3.16;78.66
67842;BME280;54642;59.126;37.876;2023-12-29T07:01:14;98692.59;;;-2.98;79.02
67842;BME280;54642;59.126;37.876;2023-12-29T07:03:41;98672.38;;;-2.95;78.71
67842;BME280;54642;59.126;37.876;2023-12-29T07:06:07;98659.03;;;-2.90;78.55
67842;BME280;54642;59.126;37.876;2023-12-29T07:08:33;98688.13;;;-2.75;78.03
67842;BME280;54642;59.126;37.876;2023-12-29T07:10:59;98674.34;;;-2.85;78.07
67842;BME280;54642;59.126;37.876;2023-12-29T07:13:25;98653.63;;;-3.02;77.91
67842;BME280;54642;59.126;37.876;2023-12-29T07:15:51;98675.25;;;-2.83;78.22
67842;BME280;54642;59.126;37.876;2023-12-29T07:18:17;98677.72;;;-2.84;78.01
67842;BME280;54642;59.126;37.876;2023-12-29T07:20:43;98659.03;;;-2.88;78.07
67842;BME280;54642;59.126;37.876;2023-12-29T07:23:09;98664.13;;;-2.88;77.95
67842;BME280;54642;59.126;37.876;2023-12-29T07:25:34;98680.34;;;-2.81;78.23
67842;BME280;54642;59.126;37.876;2023-12-29T07:28:00;98683.78;;;-2.79;78.19
67842;BME280;54642;59.126;37.876;2023-12-29T07:30:26;98679.31;;;-2.88;78.30
67842;BME280;54642;59.126;37.876;2023-12-29T07:32:52;98690.59;;;-2.78;78.17
67842;BME280;54642;59.126;37.876;2023-12-29T07:35:18;98673.25;;;-2.95;78.27
67842;BME280;54642;59.126;37.876;2023-12-29T07:37:46;98690.31;;;-2.89;78.46
67842;BME280;54642;59.126;37.876;2023-12-29T07:40:13;98678.25;;;-2.98;78.38
67842;BME280;54642;59.126;37.876;2023-12-29T07:42:39;98667.03;;;-3.06;78.41
67842;BME280;54642;59.126;37.876;2023-12-29T07:45:06;98669.88;;;-2.94;78.42
67842;BME280;54642;59.126;37.876;2023-12-29T07:47:32;98681.19;;;-2.82;78.61
67842;BME280;54642;59.126;37.876;2023-12-29T07:49:58;98660.81;;;-2.85;78.46
67842;BME280;54642;59.126;37.876;2023-12-29T07:52:24;98673.03;;;-2.71;78.33
67842;BME280;54642;59.126;37.876;2023-12-29T07:54:50;98674.09;;;-2.62;78.06
67842;BME280;54642;59.126;37.876;2023-12-29T07:57:15;98671.31;;;-2.72;77.93
67842;BME280;54642;59.126;37.876;2023-12-29T07:59:41;98677.59;;;-2.57;77.89
67842;BME280;54642;59.126;37.876;2023-12-29T08:02:07;98686.16;;;-2.54;77.89
67842;BME280;54642;59.126;37.876;2023-12-29T08:04:33;98678.41;;;-2.58;77.95
67842;BME280;54642;59.126;37.876;2023-12-29T08:07:00;98677.44;;;-2.63;77.87
67842;BME280;54642;59.126;37.876;2023-12-29T08:09:26;98668.84;;;-2.69;77.83
67842;BME280;54642;59.126;37.876;2023-12-29T08:11:52;98623.19;;;-3.03;77.80
67842;BME280;54642;59.126;37.876;2023-12-29T08:14:18;98656.59;;;-2.85;78.06
67842;BME280;54642;59.126;37.876;2023-12-29T08:16:44;98655.84;;;-2.82;78.04
67842;BME280;54642;59.126;37.876;2023-12-29T08:19:10;98669.31;;;-2.83;78.21
67842;BME280;54642;59.126;37.876;2023-12-29T08:21:36;98678.84;;;-2.75;78.08
67842;BME280;54642;59.126;37.876;2023-12-29T08:24:02;98672.69;;;-2.83;78.27
67842;BME280;54642;59.126;37.876;2023-12-29T08:26:28;98653.09;;;-2.90;78.28
67842;BME280;54642;59.126;37.876;2023-12-29T08:28:54;98679.78;;;-2.71;78.34
67842;BME280;54642;59.126;37.876;2023-12-29T08:31:20;98648.91;;;-2.88;78.15
67842;BME280;54642;59.126;37.876;2023-12-29T08:33:48;98679.88;;;-2.68;78.09
67842;BME280;54642;59.126;37.876;2023-12-29T08:36:18;98660.13;;;-2.80;78.16
67842;BME280;54642;59.126;37.876;2023-12-29T08:38:44;98676.41;;;-2.70;78.03
67842;BME280;54642;59.126;37.876;2023-12-29T08:41:13;98673.06;;;-2.69;77.96
67842;BME280;54642;59.126;37.876;2023-12-29T08:43:39;98664.53;;;-2.73;77.90
67842;BME280;54642;59.126;37.876;2023-12-29T08:46:05;98667.09;;;-2.71;78.02
67842;BME280;54642;59.126;37.876;2023-12-29T08:48:31;98652.47;;;-2.81;77.91
67842;BME280;54642;59.126;37.876;2023-12-29T08:50:57;98670.41;;;-2.74;78.17
67842;BME280;54642;59.126;37.876;2023-12-29T08:53:23;98659.03;;;-2.90;77.95
67842;BME280;54642;59.126;37.876;2023-12-29T08:55:49;98644.75;;;-2.86;78.03
67842;BME280;54642;59.126;37.876;2023-12-29T08:58:15;98661.28;;;-2.67;78.00
67842;BME280;54642;59.126;37.876;2023-12-29T09:00:41;98646.59;;;-2.80;77.79
67842;BME280;54642;59.126;37.876;2023-12-29T09:03:07;98662.06;;;-2.70;77.84
67842;BME280;54642;59.126;37.876;2023-12-29T09:05:32;98644.06;;;-2.80;77.93
67842;BME280;54642;59.126;37.876;2023-12-29T09:07:58;98629.59;;;-2.83;77.98
67842;BME280;54642;59.126;37.876;2023-12-29T09:10:24;98669.03;;;-2.62;78.20
67842;BME280;54642;59.126;37.876;2023-12-29T09:12:50;98657.22;;;-2.60;77.90
67842;BME280;54642;59.126;37.876;2023-12-29T09:15:16;98668.44;;;-2.52;77.65
67842;BME280;54642;59.126;37.876;2023-12-29T09:17:42;98660.75;;;-2.55;77.46
67842;BME280;54642;59.126;37.876;2023-12-29T09:20:08;98662.47;;;-2.53;77.84
67842;BME280;54642;59.126;37.876;2023-12-29T09:22:34;98668.56;;;-2.46;77.41
67842;BME280;54642;59.126;37.876;2023-12-29T09:25:00;98665.09;;;-2.50;77.63
67842;BME280;54642;59.126;37.876;2023-12-29T09:27:26;98647.88;;;-2.63;77.19
67842;BME280;54642;59.126;37.876;2023-12-29T09:29:52;98662.44;;;-2.54;77.52
67842;BME280;54642;59.126;37.876;2023-12-29T09:32:17;98665.91;;;-2.51;77.33
67842;BME280;54642;59.126;37.876;2023-12-29T09:34:43;98634.22;;;-2.68;77.46
67842;BME280;54642;59.126;37.876;2023-12-29T09:37:09;98658.25;;;-2.54;77.67
67842;BME280;54642;59.126;37.876;2023-12-29T09:39:35;98660.75;;;-2.55;77.73
67842;BME280;54642;59.126;37.876;2023-12-29T09:42:03;98674.41;;;-2.50;77.93
67842;BME280;54642;59.126;37.876;2023-12-29T09:44:31;98650.38;;;-2.64;77.80
67842;BME280;54642;59.126;37.876;2023-12-29T09:47:04;98656.44;;;-2.58;77.82
67842;BME280;54642;59.126;37.876;2023-12-29T09:49:38;98675.28;;;-2.48;77.89
67842;BME280;54642;59.126;37.876;2023-12-29T09:52:07;98657.53;;;-2.48;77.78
67842;BME280;54642;59.126;37.876;2023-12-29T09:54:35;98610.38;;;-2.75;77.53
67842;BME280;54642;59.126;37.876;2023-12-29T09:57:03;98673.81;;;-2.38;77.76
67842;BME280;54642;59.126;37.876;2023-12-29T09:59:35;98652.53;;;-2.45;77.67
67842;BME280;54642;59.126;37.876;2023-12-29T10:02:22;98662.03;;;-2.36;77.75
67842;BME280;54642;59.126;37.876;2023-12-29T10:04:47;98661.09;;;-2.40;77.77
67842;BME280;54642;59.126;37.876;2023-12-29T10:07:20;98620.03;;;-2.60;77.64
67842;BME280;54642;59.126;37.876;2023-12-29T10:09:50;98660.28;;;-2.39;77.67
67842;BME280;54642;59.126;37.876;2023-12-29T10:12:18;98665.38;;;-2.39;77.74
67842;BME280;54642;59.126;37.876;2023-12-29T10:25:12;98656.91;;;-2.39;77.43
67842;BME280;54642;59.126;37.876;2023-12-29T10:27:38;98668.78;;;-2.37;77.62
67842;BME280;54642;59.126;37.876;2023-12-29T10:30:06;98677.25;;;-2.36;77.74
67842;BME280;54642;59.126;37.876;2023-12-29T10:32:38;98635.47;;;-2.52;77.42
67842;BME280;54642;59.126;37.876;2023-12-29T10:35:11;98676.56;;;-2.31;77.59
67842;BME280;54642;59.126;37.876;2023-12-29T10:37:38;98669.84;;;-2.28;77.67
67842;BME280;54642;59.126;37.876;2023-12-29T10:40:04;98674.97;;;-2.25;77.58
67842;BME280;54642;59.126;37.876;2023-12-29T10:42:30;98674.13;;;-2.26;77.76
67842;BME280;54642;59.126;37.876;2023-12-29T10:45:08;98671.53;;;-2.27;77.32
67842;BME280;54642;59.126;37.876;2023-12-29T10:47:34;98674.91;;;-2.28;77.47
67842;BME280;54642;59.126;37.876;2023-12-29T10:50:05;98678.44;;;-2.23;77.48
67842;BME280;54642;59.126;37.876;2023-12-29T10:52:32;98678.44;;;-2.22;77.37
67842;BME280;54642;59.126;37.876;2023-12-29T10:55:08;98657.84;;;-2.36;77.59
67842;BME280;54642;59.126;37.876;2023-12-29T10:57:35;98674.84;;;-2.32;78.08
67842;BME280;54642;59.126;37.876;2023-12-29T11:00:02;98668.03;;;-2.33;77.71
67842;BME280;54642;59.126;37.876;2023-12-29T11:02:29;98674.13;;;-2.26;77.88
67842;BME280;54642;59.126;37.876;2023-12-29T11:05:05;98675.94;;;-2.20;77.60
67842;BME280;54642;59.126;37.876;2023-12-29T11:07:39;98669.97;;;-2.22;77.55
67842;BME280;54642;59.126;37.876;2023-12-29T11:10:09;98665.44;;;-2.36;77.90
67842;BME280;54642;59.126;37.876;2023-12-29T11:12:36;98666.38;;;-2.32;78.18
67842;BME280;54642;59.126;37.876;2023-12-29T11:15:04;98669.69;;;-2.35;78.29
67842;BME280;54642;59.126;37.876;2023-12-29T11:17:33;98651.56;;;-2.50;78.15
67842;BME280;54642;59.126;37.876;2023-12-29T11:20:00;98666.88;;;-2.45;78.36
67842;BME280;54642;59.126;37.876;2023-12-29T11:22:29;98681.25;;;-2.46;78.39
67842;BME280;54642;59.126;37.876;2023-12-29T11:24:59;98624.72;;;-2.77;78.46
67842;BME280;54642;59.126;37.876;2023-12-29T11:27:27;98665.03;;;-2.53;78.42
67842;BME280;54642;59.126;37.876;2023-12-29T11:29:55;98663.31;;;-2.54;78.80
67842;BME280;54642;59.126;37.876;2023-12-29T11:32:27;98638.50;;;-2.65;78.68
67842;BME280;54642;59.126;37.876;2023-12-29T11:35:06;98653.22;;;-2.51;78.71
67842;BME280;54642;59.126;37.876;2023-12-29T11:40:56;98628.22;;;-2.72;78.53
67842;BME280;54642;59.126;37.876;2023-12-29T11:43:25;98653.09;;;-2.57;78.76
67842;BME280;54642;59.126;37.876;2023-12-29T11:45:52;98610.16;;;-2.84;78.84
67842;BME280;54642;59.126;37.876;2023-12-29T11:48:53;98652.25;;;-2.57;78.62
67842;BME280;54642;59.126;37.876;2023-12-29T11:51:30;98647.78;;;-2.66;78.68
67842;BME280;54642;59.126;37.876;2023-12-29T11:53:56;98651.13;;;-2.67;78.49
67842;BME280;54642;59.126;37.876;2023-12-29T11:56:23;98627.16;;;-2.80;78.55
67842;BME280;54642;59.126;37.876;2023-12-29T11:58:49;98639.31;;;-2.66;78.69
67842;BME280;54642;59.126;37.876;2023-12-29T12:01:33;98640.19;;;-2.66;78.68
67842;BME280;54642;59.126;37.876;2023-12-29T12:03:59;98647.13;;;-2.59;78.68
67842;BME280;54642;59.126;37.876;2023-12-29T12:06:38;98634.50;;;-2.57;78.52
67842;BME280;54642;59.126;37.876;2023-12-29T12:09:22;98624.53;;;-2.50;78.15
67842;BME280;54642;59.126;37.876;2023-12-29T12:11:51;98614.25;;;-2.56;77.85
67842;BME280;54642;59.126;37.876;2023-12-29T12:17:11;98632.88;;;-2.54;78.31
67842;BME280;54642;59.126;37.876;2023-12-29T12:19:38;98623.47;;;-2.58;78.24
67842;BME280;54642;59.126;37.876;2023-12-29T12:22:06;98625.19;;;-2.57;78.34
67842;BME280;54642;59.126;37.876;2023-12-29T12:24:32;98626.00;;;-2.58;78.70
67842;BME280;54642;59.126;37.876;2023-12-29T12:27:00;98605.50;;;-2.67;78.55
67842;BME280;54642;59.126;37.876;2023-12-29T12:29:27;98620.00;;;-2.61;78.36
67842;BME280;54642;59.126;37.876;2023-12-29T12:31:57;98623.72;;;-2.47;78.56
67842;BME280;54642;59.126;37.876;2023-12-29T12:34:24;98620.34;;;-2.47;78.52
67842;BME280;54642;59.126;37.876;2023-12-29T12:36:51;98617.78;;;-2.47;78.37
67842;BME280;54642;59.126;37.876;2023-12-29T12:39:17;98624.69;;;-2.42;78.42
67842;BME280;54642;59.126;37.876;2023-12-29T12:41:44;98611.13;;;-2.44;78.41
67842;BME280;54642;59.126;37.876;2023-12-29T12:44:12;98626.56;;;-2.35;78.51
67842;BME280;54642;59.126;37.876;2023-12-29T12:49:13;98624.56;;;-2.48;78.12
67842;BME280;54642;59.126;37.876;2023-12-29T12:51:39;98630.44;;;-2.49;78.13
67842;BME280;54642;59.126;37.876;2023-12-29T12:54:06;98638.00;;;-2.51;78.06
67842;BME280;54642;59.126;37.876;2023-12-29T12:56:33;98627.66;;;-2.60;78.25
67842;BME280;54642;59.126;37.876;2023-12-29T12:59:02;98644.69;;;-2.56;78.23
67842;BME280;54642;59.126;37.876;2023-12-29T13:01:28;98636.16;;;-2.58;78.19
67842;BME280;54642;59.126;37.876;2023-12-29T13:03:57;98631.16;;;-2.55;78.37
67842;BME280;54642;59.126;37.876;2023-12-29T13:06:24;98620.56;;;-2.73;78.53
67842;BME280;54642;59.126;37.876;2023-12-29T13:08:51;98612.03;;;-2.77;78.40